Time;durP1;ratioP1;P1;durP2;ratioP2;P2;SDS_P1;SDS_P2;PMS_P1;PMS_P2;Temp;Humidity;BMP_temperature;BMP_pressure;BME280_temperature;BME280_humidity;BME280_pressure;Samples;Min_cycle;Max_cycle;Signal;HPM_P1;HPM_P2
2023/07/18 00:02:26;;;;;;;;;;;29.40;63.30;;;;;;5126551;27;43555;-83
2023/07/18 00:04:52;;;;;;;;;;;29.30;63.20;;;;;;5109254;27;43051;-83
2023/07/18 00:07:17;;;;;;;;;;;29.30;62.60;;;;;;5127525;27;42950;-84
2023/07/18 00:09:43;;;;;;;;;;;29.40;62.70;;;;;;5127890;27;43026;-83
2023/07/18 00:12:09;;;;;;;;;;;29.40;63.30;;;;;;5127538;27;42920;-84
2023/07/18 00:14:34;;;;;;;;;;;29.40;62.70;;;;;;5127591;27;43119;-84
2023/07/18 00:17:00;;;;;;;;;;;29.40;63.90;;;;;;5126850;27;43934;-83
2023/07/18 00:19:27;;;;;;;;;;;29.40;62.70;;;;;;5127348;27;42928;-83
2023/07/18 00:21:52;;;;;;;;;;;29.40;62.60;;;;;;5108472;27;44333;-84
2023/07/18 00:24:18;;;;;;;;;;;29.30;62.60;;;;;;5127361;27;42805;-83
2023/07/18 00:26:43;;;;;;;;;;;29.40;63.30;;;;;;5134388;27;43234;-84
2023/07/18 00:29:09;;;;;;;;;;;29.40;63.30;;;;;;5146600;27;42952;-84
2023/07/18 00:31:36;;;;;;;;;;;29.40;62.70;;;;;;5145790;27;43636;-84
2023/07/18 00:34:03;;;;;;;;;;;29.40;63.30;;;;;;5147728;27;43002;-82
2023/07/18 00:36:29;;;;;;;;;;;29.30;62.60;;;;;;5148018;27;42993;-84
2023/07/18 00:38:55;;;;;;;;;;;29.40;62.60;;;;;;5148080;27;42996;-84
2023/07/18 00:41:20;;;;;;;;;;;29.30;62.70;;;;;;5147393;27;43057;-83
2023/07/18 00:43:46;;;;;;;;;;;29.40;62.60;;;;;;5148178;27;42922;-84
2023/07/18 00:46:12;;;;;;;;;;;29.40;62.60;;;;;;5147831;27;43032;-82
2023/07/18 00:48:38;;;;;;;;;;;29.40;63.20;;;;;;5129046;27;42947;-83
2023/07/18 00:51:04;;;;;;;;;;;29.40;62.60;;;;;;5146492;27;43346;-83
2023/07/18 00:53:30;;;;;;;;;;;29.40;62.60;;;;;;5128912;27;42961;-83
2023/07/18 00:55:56;;;;;;;;;;;29.40;62.60;;;;;;5148565;27;42997;-83
2023/07/18 00:58:22;;;;;;;;;;;29.40;62.60;;;;;;5147621;27;42881;-82
2023/07/18 01:00:48;;;;;;;;;;;29.40;62.60;;;;;;5142734;27;44064;-77
2023/07/18 01:03:16;;;;;;;;;;;29.40;62.60;;;;;;5119300;27;43835;-83
2023/07/18 01:05:41;;;;;;;;;;;29.40;62.60;;;;;;5125446;27;43164;-83
2023/07/18 01:08:07;;;;;;;;;;;29.40;63.30;;;;;;5142891;27;42986;-82
2023/07/18 01:10:32;;;;;;;;;;;29.40;63.20;;;;;;5146733;27;42929;-82
2023/07/18 01:13:01;;;;;;;;;;;29.40;62.60;;;;;;5147854;27;42867;-81
2023/07/18 01:15:28;;;;;;;;;;;29.40;63.10;;;;;;5147695;27;43733;-82
2023/07/18 01:17:53;;;;;;;;;;;29.40;63.10;;;;;;5147873;27;43617;-82
2023/07/18 01:20:21;;;;;;;;;;;28.50;61.90;;;;;;5130361;27;42919;-81
2023/07/18 01:22:48;;;;;;;;;;;29.40;63.10;;;;;;5126173;27;42986;-82
2023/07/18 01:25:17;;;;;;;;;;;29.40;62.50;;;;;;5126604;27;43495;-82
2023/07/18 01:27:43;;;;;;;;;;;29.40;62.50;;;;;;5126827;27;43186;-80
2023/07/18 01:30:09;;;;;;;;;;;29.40;63.10;;;;;;5126132;27;42928;-82
2023/07/18 01:32:35;;;;;;;;;;;29.40;62.50;;;;;;5133173;27;42997;-82
2023/07/18 01:35:02;;;;;;;;;;;29.40;62.50;;;;;;5146648;27;43610;-82
2023/07/18 01:37:28;;;;;;;;;;;29.40;62.50;;;;;;5126441;27;42889;-82
2023/07/18 01:39:53;;;;;;;;;;;29.40;63.20;;;;;;5126786;27;43159;-83
2023/07/18 01:42:19;;;;;;;;;;;29.40;62.50;;;;;;5126420;27;42890;-82
2023/07/18 01:44:44;;;;;;;;;;;29.40;63.20;;;;;;5125898;27;42947;-83
2023/07/18 01:47:10;;;;;;;;;;;29.40;62.50;;;;;;5126755;27;42972;-82
2023/07/18 01:49:35;;;;;;;;;;;29.40;63.10;;;;;;5126806;27;42817;-83
2023/07/18 01:52:03;;;;;;;;;;;29.50;62.50;;;;;;5126681;27;42970;-82
2023/07/18 01:54:29;;;;;;;;;;;29.40;63.10;;;;;;5126262;27;44586;-83
2023/07/18 01:56:54;;;;;;;;;;;29.50;63.10;;;;;;5127406;27;43209;-79
2023/07/18 01:59:21;;;;;;;;;;;29.50;62.50;;;;;;5131390;27;42996;-82
2023/07/18 02:01:47;;;;;;;;;;;29.40;63.00;;;;;;5126882;27;43013;-82
2023/07/18 02:04:13;;;;;;;;;;;29.50;62.50;;;;;;5146304;27;43390;-83
2023/07/18 02:06:38;;;;;;;;;;;29.40;63.00;;;;;;5144627;27;43143;-82
2023/07/18 02:09:04;;;;;;;;;;;29.40;62.30;;;;;;5128896;27;42905;-81
2023/07/18 02:11:29;;;;;;;;;;;29.40;62.30;;;;;;5137310;27;42921;-83
2023/07/18 02:13:55;;;;;;;;;;;29.50;63.10;;;;;;5126018;27;42869;-83
2023/07/18 02:16:20;;;;;;;;;;;29.40;62.90;;;;;;5139547;27;43053;-83
2023/07/18 02:18:46;;;;;;;;;;;29.50;62.40;;;;;;5146865;27;42911;-83
2023/07/18 02:21:11;;;;;;;;;;;29.50;62.40;;;;;;5127919;27;43117;-84
2023/07/18 02:23:37;;;;;;;;;;;29.50;63.00;;;;;;5146533;27;43386;-83
2023/07/18 02:26:02;;;;;;;;;;;29.40;62.20;;;;;;5146986;27;43060;-83
2023/07/18 02:28:28;;;;;;;;;;;29.50;62.40;;;;;;5133549;27;43677;-83
2023/07/18 02:30:53;;;;;;;;;;;29.50;62.30;;;;;;5125312;27;42970;-79
2023/07/18 02:33:19;;;;;;;;;;;29.50;62.90;;;;;;5124841;27;43105;-84
2023/07/18 02:35:48;;;;;;;;;;;29.50;63.10;;;;;;5124538;27;43329;-82
2023/07/18 02:38:14;;;;;;;;;;;29.50;62.30;;;;;;5140273;27;43549;-81
2023/07/18 02:40:41;;;;;;;;;;;29.50;62.30;;;;;;5146236;27;42940;-84
2023/07/18 02:43:06;;;;;;;;;;;29.50;62.90;;;;;;5146229;27;43526;-83
2023/07/18 02:45:32;;;;;;;;;;;29.50;63.00;;;;;;5146233;27;43345;-83
2023/07/18 02:47:57;;;;;;;;;;;29.50;62.20;;;;;;5146534;27;43557;-80
2023/07/18 02:50:23;;;;;;;;;;;29.50;62.90;;;;;;5146015;27;42880;-81
2023/07/18 02:52:49;;;;;;;;;;;29.50;62.20;;;;;;5146046;27;42961;-82
2023/07/18 02:55:15;;;;;;;;;;;29.50;62.20;;;;;;5146764;27;43063;-82
2023/07/18 02:57:40;;;;;;;;;;;29.50;62.80;;;;;;5150104;27;43455;-82
2023/07/18 03:00:17;;;;;;;;;;;29.50;62.90;;;;;;5148827;27;42792;-83
2023/07/18 03:02:45;;;;;;;;;;;29.60;62.30;;;;;;5149687;27;43481;-82
2023/07/18 03:05:10;;;;;;;;;;;29.50;62.80;;;;;;5149931;27;42901;-83
2023/07/18 03:07:36;;;;;;;;;;;29.50;62.10;;;;;;5149765;27;43857;-82
2023/07/18 03:10:03;;;;;;;;;;;29.50;62.20;;;;;;5149411;27;42891;-82
2023/07/18 03:12:29;;;;;;;;;;;29.60;62.90;;;;;;5150257;27;43528;-81
2023/07/18 03:14:54;;;;;;;;;;;29.60;62.20;;;;;;5145239;27;43144;-83
2023/07/18 03:17:20;;;;;;;;;;;29.50;62.70;;;;;;5144532;27;43435;-83
2023/07/18 03:19:46;;;;;;;;;;;29.60;62.10;;;;;;5136317;27;42887;-82
2023/07/18 03:22:13;;;;;;;;;;;29.50;62.10;;;;;;5134868;27;43057;-81
2023/07/18 03:24:38;;;;;;;;;;;29.60;62.10;;;;;;5148586;27;42956;-82
2023/07/18 03:27:04;;;;;;;;;;;29.60;62.10;;;;;;5149275;27;42971;-82
2023/07/18 03:29:29;;;;;;;;;;;29.60;62.70;;;;;;5147992;27;42994;-82
2023/07/18 03:31:55;;;;;;;;;;;29.60;62.10;;;;;;5149539;27;43607;-83
2023/07/18 03:34:20;;;;;;;;;;;29.60;62.10;;;;;;5149531;27;42926;-82
2023/07/18 03:36:46;;;;;;;;;;;29.60;62.10;;;;;;5146070;27;43939;-82
2023/07/18 03:39:13;;;;;;;;;;;29.60;62.10;;;;;;5149969;27;43072;-79
2023/07/18 03:41:39;;;;;;;;;;;29.60;62.00;;;;;;5149753;27;43410;-77
2023/07/18 03:44:04;;;;;;;;;;;29.60;62.60;;;;;;5149836;27;42867;-78
2023/07/18 03:46:30;;;;;;;;;;;29.60;62.00;;;;;;5148291;27;43386;-79
2023/07/18 03:48:55;;;;;;;;;;;29.60;62.60;;;;;;5149258;27;42929;-77
2023/07/18 03:51:21;;;;;;;;;;;29.60;62.60;;;;;;5149279;27;42954;-78
2023/07/18 03:53:46;;;;;;;;;;;29.60;62.60;;;;;;5148940;27;43059;-77
2023/07/18 03:56:12;;;;;;;;;;;29.60;62.00;;;;;;5149580;27;43487;-77
2023/07/18 03:58:37;;;;;;;;;;;29.60;61.90;;;;;;5149338;27;42910;-78
2023/07/18 04:01:07;;;;;;;;;;;29.50;61.90;;;;;;5149152;27;42828;-78
2023/07/18 04:03:34;;;;;;;;;;;29.60;61.90;;;;;;5148629;27;43033;-78
2023/07/18 04:05:59;;;;;;;;;;;29.60;62.50;;;;;;5128073;27;43278;-83
2023/07/18 04:08:25;;;;;;;;;;;29.60;61.90;;;;;;5127969;27;43006;-82
2023/07/18 04:10:50;;;;;;;;;;;29.70;62.70;;;;;;5128243;27;42989;-82
2023/07/18 04:13:16;;;;;;;;;;;29.70;62.60;;;;;;5146220;27;43364;-81
2023/07/18 04:15:41;;;;;;;;;;;29.70;62.60;;;;;;5146465;27;42928;-83
2023/07/18 04:18:07;;;;;;;;;;;29.60;62.00;;;;;;5149110;27;42808;-82
2023/07/18 04:20:32;;;;;;;;;;;29.70;61.90;;;;;;5128575;27;43552;-81
2023/07/18 04:22:58;;;;;;;;;;;29.60;61.80;;;;;;5149175;27;42865;-82
2023/07/18 04:25:23;;;;;;;;;;;29.60;61.80;;;;;;5148022;27;42800;-82
2023/07/18 04:27:49;;;;;;;;;;;29.60;61.80;;;;;;5139630;27;42968;-79
2023/07/18 04:30:14;;;;;;;;;;;29.60;62.40;;;;;;5134774;27;43560;-79
2023/07/18 04:32:41;;;;;;;;;;;29.60;61.80;;;;;;5132923;27;42913;-78
2023/07/18 04:35:08;;;;;;;;;;;29.70;62.40;;;;;;5131701;27;43412;-79
2023/07/18 04:37:33;;;;;;;;;;;29.60;61.80;;;;;;5133151;27;42870;-79
2023/07/18 04:39:59;;;;;;;;;;;29.70;62.50;;;;;;5146276;27;43553;-78
2023/07/18 04:42:24;;;;;;;;;;;29.60;61.80;;;;;;5134762;27;43281;-78
2023/07/18 04:44:50;;;;;;;;;;;29.70;61.80;;;;;;5141416;27;42961;-78
2023/07/18 04:47:15;;;;;;;;;;;29.70;61.80;;;;;;5139907;27;43021;-81
2023/07/18 04:49:41;;;;;;;;;;;29.70;61.80;;;;;;5146160;27;43613;-79
2023/07/18 04:52:07;;;;;;;;;;;29.70;62.50;;;;;;5139897;27;43063;-78
2023/07/18 04:54:32;;;;;;;;;;;29.70;62.30;;;;;;5140657;27;44177;-80
2023/07/18 04:56:58;;;;;;;;;;;29.70;62.50;;;;;;5126443;27;42934;-80
2023/07/18 04:59:23;;;;;;;;;;;29.60;61.70;;;;;;5128101;27;42925;-79
2023/07/18 05:01:53;;;;;;;;;;;29.70;61.70;;;;;;5126434;27;43124;-78
2023/07/18 05:04:19;;;;;;;;;;;29.70;62.40;;;;;;5127462;27;42877;-78
2023/07/18 05:06:45;;;;;;;;;;;29.60;61.70;;;;;;5126824;27;42840;-79
2023/07/18 05:09:11;;;;;;;;;;;29.70;61.70;;;;;;5108444;27;44531;-80
2023/07/18 05:11:36;;;;;;;;;;;29.70;62.30;;;;;;5127689;27;43180;-79
2023/07/18 05:14:02;;;;;;;;;;;29.70;62.30;;;;;;5126794;27;42828;-79
2023/07/18 05:16:27;;;;;;;;;;;29.70;61.70;;;;;;5126967;27;42924;-79
2023/07/18 05:18:53;;;;;;;;;;;29.70;61.70;;;;;;5125514;27;43642;-79
2023/07/18 05:21:19;;;;;;;;;;;29.70;62.30;;;;;;5126378;27;42948;-80
2023/07/18 05:23:45;;;;;;;;;;;29.70;61.70;;;;;;5127230;27;42935;-78
2023/07/18 05:26:10;;;;;;;;;;;29.70;61.70;;;;;;5129808;27;43028;-78
2023/07/18 05:28:36;;;;;;;;;;;29.70;62.30;;;;;;5147149;27;42917;-78
2023/07/18 05:31:10;;;;;;;;;;;29.70;62.30;;;;;;5148118;27;42913;-78
2023/07/18 05:33:36;;;;;;;;;;;29.70;61.70;;;;;;5147927;27;43787;-78
2023/07/18 05:36:02;;;;;;;;;;;29.70;61.60;;;;;;5146077;27;42923;-78
2023/07/18 05:38:27;;;;;;;;;;;29.70;61.60;;;;;;5140839;27;43658;-78
2023/07/18 05:40:53;;;;;;;;;;;29.70;61.70;;;;;;5141716;27;43157;-78
2023/07/18 05:43:19;;;;;;;;;;;29.70;62.20;;;;;;5141172;27;42889;-78
2023/07/18 05:45:45;;;;;;;;;;;29.70;62.20;;;;;;5138773;27;42961;-77
2023/07/18 05:48:10;;;;;;;;;;;29.70;61.60;;;;;;5135608;27;42836;-77
2023/07/18 05:50:36;;;;;;;;;;;29.70;62.20;;;;;;5137638;27;42970;-78
2023/07/18 05:53:01;;;;;;;;;;;29.80;61.70;;;;;;5136604;27;43376;-78
2023/07/18 05:55:27;;;;;;;;;;;29.70;61.60;;;;;;5135807;27;42970;-78
2023/07/18 05:57:53;;;;;;;;;;;29.70;62.30;;;;;;5135314;27;42910;-77
2023/07/18 06:00:19;;;;;;;;;;;29.70;61.60;;;;;;5137157;27;42753;-78
2023/07/18 06:02:47;;;;;;;;;;;29.70;62.20;;;;;;5135751;27;42790;-78
2023/07/18 06:05:13;;;;;;;;;;;29.80;62.20;;;;;;5135045;27;43022;-79
2023/07/18 06:07:39;;;;;;;;;;;29.70;62.10;;;;;;5136772;27;43118;-78
2023/07/18 06:10:05;;;;;;;;;;;29.80;61.60;;;;;;5136483;27;42995;-78
2023/07/18 06:12:30;;;;;;;;;;;29.80;61.60;;;;;;5135370;27;43052;-78
2023/07/18 06:14:56;;;;;;;;;;;29.80;61.60;;;;;;5137228;27;42982;-78
2023/07/18 06:17:21;;;;;;;;;;;29.70;62.10;;;;;;5137710;27;43845;-78
2023/07/18 06:19:47;;;;;;;;;;;29.80;62.20;;;;;;5144957;27;43002;-78
2023/07/18 06:22:13;;;;;;;;;;;29.70;61.60;;;;;;5144606;27;43030;-78
2023/07/18 06:24:38;;;;;;;;;;;29.70;61.50;;;;;;5143479;27;43312;-78
2023/07/18 06:27:05;;;;;;;;;;;28.70;60.70;;;;;;5146269;27;43824;-76
2023/07/18 06:29:30;;;;;;;;;;;29.80;61.60;;;;;;5121882;27;43333;-76
2023/07/18 06:31:59;;;;;;;;;;;29.80;62.00;;;;;;5133747;27;63551;-76
2023/07/18 06:34:24;;;;;;;;;;;29.80;62.00;;;;;;5138992;27;43096;-76
2023/07/18 06:36:50;;;;;;;;;;;29.80;61.40;;;;;;5140427;27;43054;-76
2023/07/18 06:39:16;;;;;;;;;;;29.80;62.10;;;;;;5134387;27;42962;-76
2023/07/18 06:41:43;;;;;;;;;;;29.80;62.00;;;;;;5135973;27;44016;-76
2023/07/18 06:44:10;;;;;;;;;;;29.80;61.50;;;;;;5135726;27;42937;-76
2023/07/18 06:46:36;;;;;;;;;;;29.80;61.60;;;;;;5134467;27;43482;-76
2023/07/18 06:49:01;;;;;;;;;;;29.80;61.60;;;;;;5136186;27;43152;-77
2023/07/18 06:51:27;;;;;;;;;;;29.80;61.60;;;;;;5136206;27;43093;-76
2023/07/18 06:53:52;;;;;;;;;;;29.80;61.60;;;;;;5134386;27;43050;-77
2023/07/18 06:56:18;;;;;;;;;;;29.80;61.80;;;;;;5143587;27;44548;-76
2023/07/18 06:58:44;;;;;;;;;;;29.80;62.90;;;;;;5135152;27;43152;-76
2023/07/18 07:01:10;;;;;;;;;;;29.90;62.40;;;;;;5133372;27;43666;-76
2023/07/18 07:03:36;;;;;;;;;;;29.80;61.80;;;;;;5135277;27;42856;-77
2023/07/18 07:06:01;;;;;;;;;;;29.80;61.80;;;;;;5136108;27;43010;-76
2023/07/18 07:08:28;;;;;;;;;;;29.80;62.50;;;;;;5134632;27;43128;-77
2023/07/18 07:11:02;;;;;;;;;;;29.80;61.90;;;;;;5136318;27;42977;-77
2023/07/18 07:13:28;;;;;;;;;;;29.80;62.50;;;;;;5136736;27;43062;-76
2023/07/18 07:15:53;;;;;;;;;;;29.80;62.60;;;;;;5134888;27;43090;-76
2023/07/18 07:18:19;;;;;;;;;;;29.90;62.80;;;;;;5129577;27;44628;-78
2023/07/18 07:20:44;;;;;;;;;;;29.90;62.10;;;;;;5135857;27;43605;-76
2023/07/18 07:23:10;;;;;;;;;;;29.90;62.80;;;;;;5133657;27;42921;-76
2023/07/18 07:25:35;;;;;;;;;;;29.90;62.80;;;;;;5134859;27;43154;-76
2023/07/18 07:28:01;;;;;;;;;;;29.90;62.40;;;;;;5141770;27;43366;-77
2023/07/18 07:30:26;;;;;;;;;;;29.90;62.30;;;;;;5145127;27;43488;-77
2023/07/18 07:32:52;;;;;;;;;;;29.90;62.60;;;;;;5144972;27;42909;-76
2023/07/18 07:35:18;;;;;;;;;;;29.90;63.20;;;;;;5144435;27;43366;-76
2023/07/18 07:37:44;;;;;;;;;;;30.00;62.90;;;;;;5145090;27;42907;-76
2023/07/18 07:40:11;;;;;;;;;;;29.90;63.40;;;;;;5144358;27;43794;-76
2023/07/18 07:42:40;;;;;;;;;;;30.00;63.60;;;;;;5147612;27;43346;-77
2023/07/18 07:45:06;;;;;;;;;;;29.90;63.60;;;;;;5145249;27;43495;-77
2023/07/18 07:47:32;;;;;;;;;;;29.90;63.10;;;;;;5131039;27;43328;-77
2023/07/18 07:49:57;;;;;;;;;;;29.90;63.20;;;;;;5143913;27;43063;-77
2023/07/18 07:52:23;;;;;;;;;;;30.00;63.40;;;;;;5148193;27;43054;-76
2023/07/18 07:54:48;;;;;;;;;;;30.00;63.30;;;;;;5145927;27;42956;-75
2023/07/18 07:57:14;;;;;;;;;;;29.90;63.20;;;;;;5148457;27;44226;-76
2023/07/18 07:59:40;;;;;;;;;;;30.00;63.90;;;;;;5148529;27;43606;-75
2023/07/18 08:02:06;;;;;;;;;;;30.00;63.90;;;;;;5147749;27;43051;-75
2023/07/18 08:04:32;;;;;;;;;;;30.00;63.90;;;;;;5147685;27;43497;-76
2023/07/18 08:06:57;;;;;;;;;;;30.00;63.90;;;;;;5147378;27;42939;-78
2023/07/18 08:09:23;;;;;;;;;;;30.00;63.20;;;;;;5145677;27;43556;-75
2023/07/18 08:11:49;;;;;;;;;;;30.00;63.80;;;;;;5145654;27;43014;-75
2023/07/18 08:14:15;;;;;;;;;;;30.00;63.90;;;;;;5146825;27;43086;-76
2023/07/18 08:16:41;;;;;;;;;;;29.90;63.30;;;;;;5148321;27;42930;-77
2023/07/18 08:19:07;;;;;;;;;;;30.00;63.90;;;;;;5148297;27;42941;-76
2023/07/18 08:21:33;;;;;;;;;;;30.00;63.20;;;;;;5147844;27;43124;-78
2023/07/18 08:23:59;;;;;;;;;;;30.00;63.80;;;;;;5147645;27;43333;-75
2023/07/18 08:26:24;;;;;;;;;;;30.00;63.70;;;;;;5144039;27;43090;-75
2023/07/18 08:28:50;;;;;;;;;;;30.00;63.20;;;;;;5121112;27;43172;-75
2023/07/18 08:31:15;;;;;;;;;;;30.00;63.10;;;;;;5118501;27;42858;-77
2023/07/18 08:33:41;;;;;;;;;;;30.00;63.70;;;;;;5116456;27;43084;-75
2023/07/18 08:36:07;;;;;;;;;;;30.00;63.70;;;;;;5117483;27;42836;-76
2023/07/18 08:38:32;;;;;;;;;;;30.00;63.80;;;;;;5117389;27;43516;-76
2023/07/18 08:40:58;;;;;;;;;;;30.00;63.10;;;;;;5117785;27;42814;-76
2023/07/18 08:43:24;;;;;;;;;;;30.00;63.70;;;;;;5117409;27;43577;-76
2023/07/18 08:45:50;;;;;;;;;;;30.00;63.10;;;;;;5115663;27;43329;-75
2023/07/18 08:48:16;;;;;;;;;;;29.90;63.00;;;;;;5117152;27;43941;-77
2023/07/18 08:50:42;;;;;;;;;;;30.00;62.80;;;;;;5117301;27;43075;-76
2023/07/18 08:53:08;;;;;;;;;;;30.00;63.40;;;;;;5115037;27;42976;-76
2023/07/18 08:55:34;;;;;;;;;;;30.00;62.40;;;;;;5118188;27;43151;-75
2023/07/18 08:58:00;;;;;;;;;;;30.00;62.90;;;;;;5117933;27;43629;-76
2023/07/18 09:00:25;;;;;;;;;;;30.00;62.80;;;;;;5116365;27;42794;-75
2023/07/18 09:02:51;;;;;;;;;;;30.00;62.80;;;;;;5115401;27;43383;-75
2023/07/18 09:05:26;;;;;;;;;;;30.00;62.10;;;;;;5117188;27;42991;-76
2023/07/18 09:07:54;;;;;;;;;;;30.00;62.00;;;;;;5115077;27;43954;-76
2023/07/18 09:10:20;;;;;;;;;;;30.00;62.60;;;;;;5122165;27;43008;-76
2023/07/18 09:12:45;;;;;;;;;;;30.00;61.70;;;;;;5115961;27;42936;-76
2023/07/18 09:15:12;;;;;;;;;;;;;;;;;;5117725;27;42975;-75
2023/07/18 09:17:38;;;;;;;;;;;30.00;60.90;;;;;;5115835;27;43370;-75
2023/07/18 09:20:07;;;;;;;;;;;30.00;60.70;;;;;;5117254;27;42881;-75
2023/07/18 09:22:35;;;;;;;;;;;30.00;60.50;;;;;;5120612;27;43532;-75
2023/07/18 09:25:00;;;;;;;;;;;30.00;60.10;;;;;;5115082;27;42935;-75
2023/07/18 09:27:26;;;;;;;;;;;30.00;60.30;;;;;;5131331;27;43044;-75
2023/07/18 09:29:52;;;;;;;;;;;30.00;60.10;;;;;;5127190;27;43014;-75
2023/07/18 09:32:18;;;;;;;;;;;30.00;59.60;;;;;;5146820;27;43689;-76
2023/07/18 09:34:53;;;;;;;;;;;30.00;60.00;;;;;;5145537;27;42962;-77
2023/07/18 09:37:19;;;;;;;;;;;30.00;59.50;;;;;;5143507;27;43542;-75
2023/07/18 09:39:45;;;;;;;;;;;30.00;60.00;;;;;;5145019;27;42988;-76
2023/07/18 09:42:11;;;;;;;;;;;30.00;59.60;;;;;;5122470;27;43773;-77
2023/07/18 09:44:37;;;;;;;;;;;30.00;59.80;;;;;;5146498;27;43016;-75
2023/07/18 09:47:04;;;;;;;;;;;30.00;59.90;;;;;;5146658;27;43865;-76
2023/07/18 09:49:30;;;;;;;;;;;30.00;60.00;;;;;;5147127;27;43048;-75
2023/07/18 09:52:03;;;;;;;;;;;30.00;60.70;;;;;;5137307;27;43466;-75
2023/07/18 09:54:29;;;;;;;;;;;30.00;60.30;;;;;;5142835;27;43021;-76
2023/07/18 09:56:59;;;;;;;;;;;30.00;60.30;;;;;;5146260;27;42950;-76
2023/07/18 09:59:26;;;;;;;;;;;30.10;61.00;;;;;;5146416;27;42878;-77
2023/07/18 10:01:52;;;;;;;;;;;30.00;60.50;;;;;;5145924;27;43011;-76
2023/07/18 10:04:18;;;;;;;;;;;30.10;60.50;;;;;;5145372;27;43037;-77
2023/07/18 10:06:45;;;;;;;;;;;30.10;60.50;;;;;;5145000;27;43022;-76
2023/07/18 10:09:10;;;;;;;;;;;30.10;61.10;;;;;;5145515;27;43271;-77
2023/07/18 10:11:54;;;;;;;;;;;30.10;61.20;;;;;;5145757;27;42931;-76
2023/07/18 10:14:20;;;;;;;;;;;30.10;61.20;;;;;;5145618;27;43058;-77
2023/07/18 10:16:52;;;;;;;;;;;30.10;60.70;;;;;;5144366;27;43510;-77
2023/07/18 10:19:19;;;;;;;;;;;30.10;61.30;;;;;;5142765;27;42958;-77
2023/07/18 10:21:46;;;;;;;;;;;30.10;60.80;;;;;;5144583;27;43562;-76
2023/07/18 10:24:21;;;;;;;;;;;30.10;61.10;;;;;;5147312;27;42820;-77
2023/07/18 10:26:55;;;;;;;;;;;30.10;60.80;;;;;;5146655;27;43469;-78
2023/07/18 10:29:20;;;;;;;;;;;30.10;60.10;;;;;;5145882;27;43115;-78
2023/07/18 10:31:46;;;;;;;;;;;30.10;60.10;;;;;;5146487;27;43612;-77
2023/07/18 10:34:15;;;;;;;;;;;30.10;60.10;;;;;;5146391;27;43098;-77
2023/07/18 10:36:56;;;;;;;;;;;30.20;60.20;;;;;;5146462;27;43482;-78
2023/07/18 10:39:38;;;;;;;;;;;30.10;60.10;;;;;;5147298;27;43175;-77
2023/07/18 10:42:05;;;;;;;;;;;30.20;60.30;;;;;;5146685;27;43806;-78
2023/07/18 10:44:30;;;;;;;;;;;30.10;60.80;;;;;;5146980;27;42932;-78
2023/07/18 10:46:56;;;;;;;;;;;30.20;60.40;;;;;;5146659;27;43649;-77
2023/07/18 10:49:29;;;;;;;;;;;30.10;60.40;;;;;;5146397;27;42996;-77
2023/07/18 10:51:54;;;;;;;;;;;30.20;60.90;;;;;;5146064;27;43466;-77
2023/07/18 10:54:20;;;;;;;;;;;30.20;60.30;;;;;;5146420;27;42924;-78
2023/07/18 10:56:47;;;;;;;;;;;30.20;60.20;;;;;;5146711;27;43447;-78
2023/07/18 10:59:13;;;;;;;;;;;30.20;60.20;;;;;;5146362;27;42883;-77
2023/07/18 11:01:39;;;;;;;;;;;30.20;60.20;;;;;;5147096;27;43662;-78
2023/07/18 11:04:05;;;;;;;;;;;30.20;60.20;;;;;;5147027;27;42995;-77
2023/07/18 11:06:31;;;;;;;;;;;30.20;60.20;;;;;;5146013;27;43054;-77
2023/07/18 11:08:56;;;;;;;;;;;30.20;60.80;;;;;;5147175;27;42992;-77
2023/07/18 11:11:22;;;;;;;;;;;30.20;60.90;;;;;;5146734;27;43607;-78
2023/07/18 11:13:47;;;;;;;;;;;30.20;60.40;;;;;;5146619;27;42728;-77
2023/07/18 11:16:14;;;;;;;;;;;30.20;60.50;;;;;;5147699;27;43516;-78
2023/07/18 11:18:49;;;;;;;;;;;30.20;60.50;;;;;;5150407;27;42957;-78
2023/07/18 11:21:18;;;;;;;;;;;30.30;60.70;;;;;;5130505;27;43586;-76
2023/07/18 11:23:44;;;;;;;;;;;30.30;61.10;;;;;;5140377;27;43098;-78
2023/07/18 11:26:13;;;;;;;;;;;30.30;61.30;;;;;;5112456;27;43278;-78
2023/07/18 11:28:40;;;;;;;;;;;30.30;61.40;;;;;;5129064;27;42934;-77
2023/07/18 11:31:06;;;;;;;;;;;30.30;61.90;;;;;;5129042;27;42966;-78
2023/07/18 11:33:32;;;;;;;;;;;30.30;61.50;;;;;;5134492;27;43049;-78
2023/07/18 11:35:58;;;;;;;;;;;30.30;62.10;;;;;;5140621;27;43370;-76
2023/07/18 11:38:27;;;;;;;;;;;30.30;62.30;;;;;;5143653;27;42994;-78
2023/07/18 11:40:53;;;;;;;;;;;30.30;61.90;;;;;;5138846;27;42994;-77
2023/07/18 11:43:19;;;;;;;;;;;30.40;61.90;;;;;;5139101;27;43143;-78
2023/07/18 11:45:46;;;;;;;;;;;30.40;62.30;;;;;;5141323;27;42988;-78
2023/07/18 11:48:12;;;;;;;;;;;30.30;62.10;;;;;;5137205;27;43294;-77
2023/07/18 11:50:41;;;;;;;;;;;30.30;61.40;;;;;;5137584;27;43655;-77
2023/07/18 11:53:07;;;;;;;;;;;30.30;61.30;;;;;;5148540;27;42776;-78
2023/07/18 11:55:33;;;;;;;;;;;30.30;61.00;;;;;;5122625;27;44221;-75
2023/07/18 11:57:59;;;;;;;;;;;30.30;61.40;;;;;;5128952;27;43043;-75
2023/07/18 12:00:25;;;;;;;;;;;30.30;60.70;;;;;;5142655;27;42990;-84
2023/07/18 12:02:52;;;;;;;;;;;30.40;60.50;;;;;;5145147;27;43068;-88
2023/07/18 12:05:17;;;;;;;;;;;30.50;60.00;;;;;;5146174;27;44634;-86
2023/07/18 12:07:44;;;;;;;;;;;30.40;60.50;;;;;;5143900;27;42879;-84
2023/07/18 12:10:10;;;;;;;;;;;30.50;59.90;;;;;;5124482;27;44795;-82
2023/07/18 12:12:41;;;;;;;;;;;30.50;59.80;;;;;;5147543;27;42889;-88
2023/07/18 12:15:07;;;;;;;;;;;30.40;59.60;;;;;;5148061;27;43082;-84
2023/07/18 12:17:32;;;;;;;;;;;30.40;60.10;;;;;;5140730;27;43132;-75
2023/07/18 12:19:58;;;;;;;;;;;30.30;59.90;;;;;;5147085;27;43011;-76
2023/07/18 12:22:24;;;;;;;;;;;30.30;59.40;;;;;;5147881;27;43464;-75
2023/07/18 12:24:49;;;;;;;;;;;30.30;59.40;;;;;;5146500;27;43575;-78
2023/07/18 12:27:15;;;;;;;;;;;30.30;59.40;;;;;;5146001;27;43025;-75
2023/07/18 12:29:42;;;;;;;;;;;30.30;59.60;;;;;;5146431;27;43053;-74
2023/07/18 12:32:09;;;;;;;;;;;30.40;60.20;;;;;;5147029;27;42877;-75
2023/07/18 12:34:36;;;;;;;;;;;30.40;60.30;;;;;;5131994;27;42938;-75
2023/07/18 12:37:02;;;;;;;;;;;30.40;59.70;;;;;;5145796;27;43064;-83
2023/07/18 12:39:28;;;;;;;;;;;30.30;59.80;;;;;;5146130;27;43485;-74
2023/07/18 12:41:53;;;;;;;;;;;30.40;60.40;;;;;;5145558;27;43065;-76
2023/07/18 12:44:19;;;;;;;;;;;30.40;60.30;;;;;;5146607;27;42960;-89
2023/07/18 12:46:47;;;;;;;;;;;30.30;59.70;;;;;;5146590;27;43017;-90
2023/07/18 12:49:14;;;;;;;;;;;30.30;59.50;;;;;;5145771;27;42983;-75
2023/07/18 12:51:42;;;;;;;;;;;30.40;60.10;;;;;;5147378;27;42835;-89
2023/07/18 12:54:09;;;;;;;;;;;30.40;59.80;;;;;;5147192;27;43409;-75
2023/07/18 12:56:35;;;;;;;;;;;30.40;59.30;;;;;;5147507;27;42903;-79
2023/07/18 12:59:00;;;;;;;;;;;30.40;59.80;;;;;;5146779;27;43853;-74
2023/07/18 13:01:26;;;;;;;;;;;30.50;59.90;;;;;;5148098;27;42918;-86
2023/07/18 13:03:52;;;;;;;;;;;30.40;59.70;;;;;;5148507;27;43770;-79
2023/07/18 13:06:18;;;;;;;;;;;30.50;59.20;;;;;;5148761;27;42789;-80
2023/07/18 13:08:43;;;;;;;;;;;30.40;59.10;;;;;;5148700;27;42856;-90
2023/07/18 13:11:09;;;;;;;;;;;30.40;59.60;;;;;;5147320;27;43057;-90
2023/07/18 13:13:34;;;;;;;;;;;30.40;58.90;;;;;;5148262;27;43445;-76
2023/07/18 13:16:00;;;;;;;;;;;30.40;58.90;;;;;;5148354;27;42929;-83
2023/07/18 13:18:25;;;;;;;;;;;30.40;59.50;;;;;;5147886;27;43470;-75
2023/07/18 13:20:51;;;;;;;;;;;30.50;59.60;;;;;;5148958;27;42896;-74
2023/07/18 13:23:17;;;;;;;;;;;30.40;59.00;;;;;;5148244;27;43007;-81
2023/07/18 13:25:42;;;;;;;;;;;30.50;59.70;;;;;;5149130;27;43207;-83
2023/07/18 13:28:08;;;;;;;;;;;30.50;59.00;;;;;;5147957;27;42966;-89
2023/07/18 13:30:33;;;;;;;;;;;30.50;59.00;;;;;;5147984;27;42979;-78
2023/07/18 13:32:59;;;;;;;;;;;30.50;59.40;;;;;;5147953;27;43693;-74
2023/07/18 13:35:25;;;;;;;;;;;30.40;58.80;;;;;;5148093;27;42992;-79
2023/07/18 13:37:50;;;;;;;;;;;30.50;58.90;;;;;;5147149;27;42958;-90
2023/07/18 13:40:16;;;;;;;;;;;30.50;59.50;;;;;;5149141;27;42875;-74
2023/07/18 13:42:42;;;;;;;;;;;30.40;58.80;;;;;;5147233;27;42931;-75
2023/07/18 13:45:08;;;;;;;;;;;30.50;59.50;;;;;;5146571;27;43065;-74
2023/07/18 13:47:36;;;;;;;;;;;30.50;58.70;;;;;;5147659;27;43717;-75
2023/07/18 13:50:02;;;;;;;;;;;30.50;59.10;;;;;;5147880;27;42940;-89
2023/07/18 13:52:28;;;;;;;;;;;30.50;59.20;;;;;;5147126;27;42954;-85
2023/07/18 13:54:53;;;;;;;;;;;30.50;59.20;;;;;;5147630;27;43024;-75
2023/07/18 13:57:19;;;;;;;;;;;30.50;59.10;;;;;;5147276;27;42932;-74
2023/07/18 13:59:44;;;;;;;;;;;30.50;58.50;;;;;;5147554;27;42971;-82
2023/07/18 14:02:11;;;;;;;;;;;30.50;58.30;;;;;;5147698;27;43823;-83
2023/07/18 14:04:36;;;;;;;;;;;30.50;58.30;;;;;;5146988;27;42971;-80
2023/07/18 14:07:02;;;;;;;;;;;30.50;58.30;;;;;;5147681;27;42994;-74
2023/07/18 14:09:28;;;;;;;;;;;30.50;58.80;;;;;;5147988;27;43436;-76
2023/07/18 14:11:54;;;;;;;;;;;30.50;58.00;;;;;;5147600;27;43121;-75
2023/07/18 14:14:19;;;;;;;;;;;30.60;58.00;;;;;;5148353;27;42830;-76